Hlavní strana
METAR-TAF:

METAR-TAF

Letiště :

Rønne, Dánsko

zeměpisná šířka: 55-04N, zeměpisná délka: 014-45E, výška: 16 m

Aktuální stav počasí

Zpráva byla vytvořena před 33 minutami, v 15:20 UTC
Východní vítr 9 kt, proměnlivý mezi východoseverovýchodním a jihovýchodním
Teplota 26°C
Vlhkost vzduchu 42%
Tlak 1023 hPa
Viditelnost 10 km a více

METAR: EKRN 251520Z AUTO 10009KT 070V130 9999 NCD 26/12 Q1023

Čas: 17:53 (15:53 UTC)

Předpověď počasí

Zpráva byla vytvořena před 1 hodinou a 32 minutami, v 14:21 UTC
Předpověď platná od 25 v 15 UTC do 25 v 22 UTC
Východojihovýchodní vítr 8 kt
Viditelnost 10 km a více
Žádná oblačnost pod 1500 m, nevyskytují se cumulonimby.

TAF: EKRN 251421Z 2515/2522 12008KT CAVOK

Stav a předpovědi počasí z více než 4 000 letišť (zprávy METAR a TAF).

Červené a žluté tečky na mapě představují dostupné meteorologické stanice.

Když kurzor umístíte na tečku, zobrazí se název stanice.

Pak kliknutím zobrazíte stav a předpověď počasí.

Chcete-li změnit mapu, kliknutím na zelené tlačítko se znaménkem +mapu přiblížíte, kliknutím na zelené tlačítko se znaménkem – mapu oddálíte a kliknutím na zelené šipky přejdete na sousední mapy.


METAR-TAF: